Time;durP1;ratioP1;P1;durP2;ratioP2;P2;SDS_P1;SDS_P2;PMS_P1;PMS_P2;Temp;Humidity;BMP_temperature;BMP_pressure;BME280_temperature;BME280_humidity;BME280_pressure;Samples;Min_cycle;Max_cycle;Signal;HPM_P1;HPM_P2
2023/01/28 00:00:49;;;;;;;1.88;1.77;;;;;;;2.20;100.00;99345.34;4183326;28;20286;-52
2023/01/28 00:02:51;;;;;;;2.42;2.33;;;;;;;2.10;100.00;99338.50;4182443;28;20211;-52
2023/01/28 00:04:53;;;;;;;1.90;1.80;;;;;;;2.13;100.00;99338.97;4184156;28;20259;-52
2023/01/28 00:06:55;;;;;;;2.25;2.00;;;;;;;2.05;100.00;99344.41;4189124;28;20212;-52
2023/01/28 00:08:59;;;;;;;2.03;1.92;;;;;;;2.02;100.00;99338.53;4186211;28;20212;-51
2023/01/28 00:11:03;;;;;;;1.75;1.65;;;;;;;2.02;100.00;99350.16;4197426;28;20257;-51
2023/01/28 00:13:06;;;;;;;1.85;1.75;;;;;;;1.99;100.00;99345.13;4188262;28;20688;-50
2023/01/28 00:15:08;;;;;;;1.38;1.30;;;;;;;1.99;100.00;99345.13;4174296;28;20212;-52
2023/01/28 00:17:10;;;;;;;2.63;2.42;;;;;;;1.94;100.00;99336.69;4189803;28;20212;-52
2023/01/28 00:19:12;;;;;;;2.08;1.98;;;;;;;2.05;100.00;99339.03;4180869;28;20550;-52
2023/01/28 00:21:15;;;;;;;2.53;2.33;;;;;;;2.05;100.00;99338.16;4178508;28;20306;-52
2023/01/28 00:23:16;;;;;;;1.70;1.60;;;;;;;1.90;100.00;99345.31;4181426;28;20756;-52
2023/01/28 00:25:18;;;;;;;3.70;2.53;;;;;;;1.86;100.00;99339.44;4180778;28;20294;-52
2023/01/28 00:27:20;;;;;;;3.03;2.65;;;;;;;1.82;100.00;99338.09;4178552;28;20251;-53
2023/01/28 00:29:21;;;;;;;2.53;2.33;;;;;;;1.87;100.00;99340.28;4181346;28;20230;-52
2023/01/28 00:31:26;;;;;;;2.63;2.42;;;;;;;1.99;100.00;99339.72;4181074;28;20246;-51
2023/01/28 00:33:28;;;;;;;2.53;2.33;;;;;;;1.89;100.00;99338.25;4179591;28;20281;-51
2023/01/28 00:35:29;;;;;;;2.33;2.13;;;;;;;1.92;100.00;99332.50;4168286;28;20265;-52
2023/01/28 00:37:31;;;;;;;2.42;2.22;;;;;;;1.92;100.00;99330.66;4181225;28;20254;-52
2023/01/28 00:39:33;;;;;;;2.22;2.13;;;;;;;1.89;100.00;99328.28;4169429;28;20403;-52
2023/01/28 00:41:36;;;;;;;2.42;2.30;;;;;;;2.02;100.00;99323.16;4180700;28;20204;-51
2023/01/28 00:43:41;;;;;;;4.13;3.67;;;;;;;1.89;100.00;99322.88;4182033;28;20238;-51
2023/01/28 00:45:43;;;;;;;2.40;2.20;;;;;;;1.93;100.00;99326.94;4187611;28;20239;-52
2023/01/28 00:47:45;;;;;;;2.60;2.40;;;;;;;1.87;100.00;99333.03;4180606;28;20207;-53
2023/01/28 00:49:46;;;;;;;2.63;2.42;;;;;;;1.94;100.00;99325.91;4169854;28;20676;-51
2023/01/28 00:51:48;;;;;;;2.50;2.30;;;;;;;1.90;100.00;99332.69;4180883;28;20224;-52
2023/01/28 00:53:50;;;;;;;3.20;2.58;;;;;;;1.85;100.00;99332.38;4165960;28;20258;-52
2023/01/28 00:55:51;;;;;;;2.13;1.98;;;;;;;1.92;100.00;99327.94;4176720;28;20216;-51
2023/01/28 00:57:53;;;;;;;2.03;1.92;;;;;;;1.93;100.00;99329.63;4191023;28;20235;-52
2023/01/28 00:59:55;;;;;;;2.60;2.38;;;;;;;1.94;100.00;99331.31;4181362;28;20619;-52
2023/01/28 01:02:11;;;;;;;5.75;2.65;;;;;;;1.85;100.00;99328.81;4170447;28;20246;-53
2023/01/28 01:04:13;;;;;;;2.53;2.30;;;;;;;1.81;100.00;99331.03;4188435;28;20251;-51
2023/01/28 01:06:15;;;;;;;3.00;2.70;;;;;;;1.79;100.00;99335.75;4181553;28;20239;-51
2023/01/28 01:08:16;;;;;;;3.20;3.00;;;;;;;1.73;100.00;99339.16;4169142;28;20212;-52
2023/01/28 01:10:19;;;;;;;3.95;3.60;;;;;;;1.83;100.00;99342.50;4181739;28;20700;-51
2023/01/28 01:12:21;;;;;;;2.67;2.50;;;;;;;1.81;100.00;99341.81;4187623;28;20299;-52
2023/01/28 01:14:23;;;;;;;2.75;2.42;;;;;;;1.74;100.00;99340.84;4181609;28;20314;-51
2023/01/28 01:16:27;;;;;;;2.83;2.60;;;;;;;1.78;100.00;99342.19;4183861;28;20210;-53
2023/01/28 01:18:29;;;;;;;2.97;2.70;;;;;;;1.75;100.00;99339.81;4181346;28;20666;-52
2023/01/28 01:20:32;;;;;;;2.28;2.08;;;;;;;1.89;100.00;99341.78;4183937;28;20311;-52
2023/01/28 01:22:37;;;;;;;3.05;2.85;;;;;;;1.90;100.00;99340.78;4183376;28;20265;-52
2023/01/28 01:24:38;;;;;;;2.53;2.33;;;;;;;1.91;100.00;99339.75;4182116;28;20329;-51
2023/01/28 01:26:40;;;;;;;3.60;3.40;;;;;;;1.82;100.00;99342.66;4181957;28;20314;-52
2023/01/28 01:28:42;;;;;;;2.13;2.03;;;;;;;1.79;100.00;99343.84;4185089;28;20661;-52
2023/01/28 01:30:43;;;;;;;3.03;2.83;;;;;;;1.78;100.00;99349.41;4180269;28;20255;-51
2023/01/28 01:32:45;;;;;;;3.35;3.00;;;;;;;1.76;100.00;99338.81;4180008;28;20218;-52
2023/01/28 01:34:48;;;;;;;5.40;3.22;;;;;;;1.82;100.00;99348.06;4180918;28;20207;-52
2023/01/28 01:36:49;;;;;;;7.57;3.25;;;;;;;1.91;100.00;99347.84;4165327;28;20627;-52
2023/01/28 01:38:53;;;;;;;2.78;2.58;;;;;;;1.91;100.00;99344.31;4180280;28;20208;-51
2023/01/28 01:40:59;;;;;;;2.65;2.45;;;;;;;1.96;100.00;99350.88;4185544;28;20258;-51
2023/01/28 01:43:01;;;;;;;3.28;2.97;;;;;;;1.98;100.00;99343.44;4177982;28;20232;-52
2023/01/28 01:45:10;;;;;;;3.65;2.83;;;;;;;2.00;100.00;99345.97;4181148;28;20678;-52
2023/01/28 01:47:13;;;;;;;4.82;2.38;;;;;;;2.00;100.00;99352.19;4183669;28;20229;-52
2023/01/28 01:49:22;;;;;;;2.05;1.85;;;;;;;1.97;100.00;99351.69;4181061;28;20255;-51
2023/01/28 01:51:28;;;;;;;2.15;2.05;;;;;;;2.08;100.00;99354.84;4181769;28;20223;-53
2023/01/28 01:53:30;;;;;;;2.60;2.40;;;;;;;2.00;100.00;99349.50;4181638;28;20350;-52
2023/01/28 01:55:34;;;;;;;2.92;2.72;;;;;;;2.05;100.00;99354.34;4180724;28;20207;-52
2023/01/28 01:57:38;;;;;;;2.72;2.53;;;;;;;2.07;100.00;99353.16;4184795;28;20208;-51
2023/01/28 01:59:41;;;;;;;2.80;2.60;;;;;;;2.05;100.00;99352.50;4179547;28;20286;-51
2023/01/28 02:01:46;;;;;;;2.75;2.55;;;;;;;2.10;100.00;99355.53;4179135;28;20253;-52
2023/01/28 02:04:12;;;;;;;2.15;1.95;;;;;;;2.08;100.00;99359.41;4182277;28;20230;-51
2023/01/28 02:06:13;;;;;;;1.83;1.73;;;;;;;1.99;100.00;99361.31;4181744;28;20232;-51
2023/01/28 02:08:21;;;;;;;2.08;1.98;;;;;;;2.03;100.00;99359.94;4185921;28;20685;-51
2023/01/28 02:10:23;;;;;;;2.45;2.30;;;;;;;1.90;100.00;99362.38;4181162;28;20691;-50
2023/01/28 02:12:29;;;;;;;2.33;2.22;;;;;;;1.87;100.00;99362.69;4183880;28;20238;-51
2023/01/28 02:14:34;;;;;;;3.05;2.78;;;;;;;1.95;100.00;99364.53;4187956;28;20318;-52
2023/01/28 02:16:36;;;;;;;2.80;1.80;;;;;;;1.90;100.00;99365.06;4185802;28;20220;-51
2023/01/28 02:18:38;;;;;;;1.75;1.65;;;;;;;1.98;100.00;99370.44;4172610;28;20211;-51
2023/01/28 02:21:01;;;;;;;2.22;2.03;;;;;;;2.08;100.00;99376.44;4184357;28;20235;-50
2023/01/28 02:23:11;;;;;;;1.80;1.70;;;;;;;2.13;100.00;99368.66;4184061;28;20321;-51
2023/01/28 02:25:20;;;;;;;2.03;1.92;;;;;;;2.19;100.00;99365.25;4183264;28;20290;-50
2023/01/28 02:27:47;;;;;;;2.15;2.05;;;;;;;2.08;100.00;99362.94;4185784;28;20224;-51
2023/01/28 02:29:57;;;;;;;2.33;2.13;;;;;;;1.98;100.00;99373.13;4183184;28;20622;-50
2023/01/28 02:32:27;;;;;;;1.60;1.50;;;;;;;1.98;100.00;99365.03;4184993;28;20643;-50
2023/01/28 02:34:35;;;;;;;1.88;1.52;;;;;;;1.95;100.00;99364.53;4184308;28;20331;-51
2023/01/28 02:36:45;;;;;;;2.45;2.35;;;;;;;1.92;100.00;99365.72;4191664;28;20198;-51
2023/01/28 02:38:48;;;;;;;2.45;2.35;;;;;;;1.95;100.00;99372.63;4186708;28;20276;-51
2023/01/28 02:41:02;;;;;;;1.70;1.60;;;;;;;1.94;100.00;99363.69;4182271;28;22984;-51
2023/01/28 02:43:04;;;;;;;2.65;2.45;;;;;;;2.01;100.00;99361.97;4185599;28;20239;-51
2023/01/28 02:45:22;;;;;;;2.22;2.13;;;;;;;1.91;100.00;99364.06;4164469;28;20241;-50
2023/01/28 02:49:52;;;;;;;2.00;1.90;;;;;;;1.88;100.00;99350.88;4182966;28;20203;-49
2023/01/28 02:52:17;;;;;;;1.70;1.60;;;;;;;1.95;100.00;99364.53;4184099;28;20704;-51
2023/01/28 02:54:43;;;;;;;2.22;2.13;;;;;;;1.94;100.00;99352.06;4187931;28;20286;-51
2023/01/28 02:56:51;;;;;;;2.42;1.73;;;;;;;1.92;100.00;99349.53;4182100;28;20206;-51
2023/01/28 02:59:30;;;;;;;2.22;2.00;;;;;;;1.88;100.00;99361.69;4186735;28;20879;-50
2023/01/28 03:01:37;;;;;;;2.65;2.45;;;;;;;1.84;100.00;99367.59;4184482;28;20211;-50
2023/01/28 03:04:01;;;;;;;1.98;1.85;;;;;;;1.91;100.00;99361.34;4185843;28;20214;-50
2023/01/28 03:06:06;;;;;;;2.67;2.47;;;;;;;1.87;100.00;99368.09;4189318;28;20249;-49
2023/01/28 03:10:29;;;;;;;2.13;1.95;;;;;;;1.87;100.00;99368.09;4183697;28;20327;-49
2023/01/28 03:36:55;;;;;;;2.55;2.35;;;;;;;1.71;100.00;99384.34;4182299;28;20200;-49
2023/01/28 03:38:57;;;;;;;2.63;2.42;;;;;;;1.69;100.00;99391.75;4180648;28;20281;-50
2023/01/28 03:41:01;;;;;;;2.35;2.15;;;;;;;1.66;100.00;99378.63;4181346;28;20204;-49
2023/01/28 03:43:03;;;;;;;2.03;1.92;;;;;;;1.68;100.00;99390.06;4176219;28;20231;-49
2023/01/28 03:45:06;;;;;;;2.38;2.03;;;;;;;1.61;100.00;99389.09;4170392;28;20670;-49
2023/01/28 03:47:10;;;;;;;2.17;2.08;;;;;;;1.68;100.00;99381.16;4181017;28;20338;-49
2023/01/28 03:49:12;;;;;;;2.15;2.05;;;;;;;1.69;100.00;99391.75;4178991;28;20721;-50
2023/01/28 03:51:14;;;;;;;2.17;2.03;;;;;;;1.73;100.00;99386.88;4186370;28;20796;-49
2023/01/28 03:53:17;;;;;;;2.85;2.65;;;;;;;1.70;100.00;99393.47;4183054;28;20263;-50
2023/01/28 03:55:19;;;;;;;2.30;2.10;;;;;;;1.69;100.00;99391.75;4181711;28;20215;-49
2023/01/28 03:57:24;;;;;;;2.03;1.92;;;;;;;1.71;100.00;99394.28;4186778;28;20619;-49
2023/01/28 03:59:25;;;;;;;2.00;1.90;;;;;;;1.67;100.00;99399.19;4181923;28;20200;-49
2023/01/28 04:01:27;;;;;;;2.00;1.90;;;;;;;1.81;100.00;99406.56;4182764;28;20231;-50
2023/01/28 04:03:29;;;;;;;2.53;2.40;;;;;;;1.76;100.00;99403.56;4169711;28;20244;-49
2023/01/28 04:05:31;;;;;;;2.20;2.00;;;;;;;1.77;100.00;99399.84;4184410;28;20269;-50
2023/01/28 04:07:33;;;;;;;2.25;2.15;;;;;;;1.70;100.00;99403.41;4187427;28;20846;-49
2023/01/28 04:09:38;;;;;;;2.63;2.42;;;;;;;1.75;100.00;99396.47;4181012;28;20207;-49
2023/01/28 04:11:40;;;;;;;2.70;2.42;;;;;;;1.77;100.00;99399.84;4183862;28;20309;-49
2023/01/28 04:13:42;;;;;;;2.53;2.33;;;;;;;1.73;100.00;99393.09;4176467;28;20223;-49
2023/01/28 04:15:44;;;;;;;1.98;1.80;;;;;;;1.80;100.00;99393.28;4182473;28;20207;-49
2023/01/28 04:17:47;;;;;;;2.50;2.30;;;;;;;1.84;100.00;99389.19;4181411;28;20294;-48
2023/01/28 04:19:48;;;;;;;2.10;1.90;;;;;;;1.81;100.00;99395.78;4183469;28;20231;-48
2023/01/28 04:21:52;;;;;;;1.95;1.85;;;;;;;1.92;100.00;99398.09;4182739;28;20324;-49
2023/01/28 04:23:54;;;;;;;2.15;1.95;;;;;;;1.76;100.00;99398.16;4183560;28;20259;-49
2023/01/28 04:25:56;;;;;;;2.17;2.08;;;;;;;1.68;100.00;99406.25;4185148;28;20325;-49
2023/01/28 04:27:57;;;;;;;2.05;1.85;;;;;;;1.78;100.00;99404.22;4185337;28;20215;-49
2023/01/28 04:29:59;;;;;;;1.98;1.88;;;;;;;1.73;100.00;99409.28;4181575;28;20216;-49
2023/01/28 04:32:01;;;;;;;2.08;1.98;;;;;;;1.79;100.00;99400.50;4181552;28;20695;-48
2023/01/28 04:34:03;;;;;;;1.75;1.65;;;;;;;1.76;100.00;99406.25;4180056;28;20228;-50
2023/01/28 04:36:05;;;;;;;1.83;1.73;;;;;;;1.78;100.00;99404.22;4181020;28;20262;-49
2023/01/28 04:38:07;;;;;;;2.30;2.20;;;;;;;1.68;100.00;99417.03;4182233;28;21905;-49
2023/01/28 04:40:10;;;;;;;2.03;1.92;;;;;;;1.82;100.00;99408.25;4185594;28;20212;-49
2023/01/28 04:42:12;;;;;;;1.73;1.63;;;;;;;1.69;100.00;99418.72;4183867;28;20232;-50
2023/01/28 04:44:15;;;;;;;1.85;1.75;;;;;;;1.62;100.00;99415.03;4183584;28;20763;-49
2023/01/28 04:46:17;;;;;;;1.98;1.88;;;;;;;1.62;100.00;99422.31;4184223;28;20630;-49
2023/01/28 04:48:19;;;;;;;1.70;1.60;;;;;;;1.63;100.00;99422.13;4180623;28;20207;-50
2023/01/28 04:50:21;;;;;;;1.67;1.58;;;;;;;1.62;100.00;99425.81;4182197;28;20658;-49
2023/01/28 04:52:22;;;;;;;1.98;1.88;;;;;;;1.67;100.00;99425.34;4180845;28;20227;-50
2023/01/28 04:54:24;;;;;;;1.73;1.63;;;;;;;1.61;100.00;99426.03;4199392;28;20230;-50
2023/01/28 04:56:26;;;;;;;1.70;1.60;;;;;;;1.58;100.00;99432.59;4180717;28;20330;-49
2023/01/28 04:58:28;;;;;;;2.13;2.03;;;;;;;1.52;100.00;99427.88;4162736;28;20208;-49
2023/01/28 05:00:30;;;;;;;1.80;1.70;;;;;;;1.50;100.00;99426.34;4181465;28;20249;-50
2023/01/28 05:02:32;;;;;;;2.20;2.10;;;;;;;1.54;100.00;99431.25;4183377;28;20213;-49
2023/01/28 05:04:33;;;;;;;1.92;1.83;;;;;;;1.53;100.00;99432.25;4183206;28;20270;-49
2023/01/28 05:06:35;;;;;;;1.60;1.50;;;;;;;1.48;100.00;99439.19;4181390;28;21160;-49
2023/01/28 05:08:37;;;;;;;1.90;1.80;;;;;;;1.47;100.00;99430.25;4180996;28;20195;-49
2023/01/28 05:10:39;;;;;;;1.98;1.88;;;;;;;1.58;100.00;99432.59;4168993;28;20294;-48
2023/01/28 05:12:43;;;;;;;1.98;1.88;;;;;;;1.59;100.00;99439.66;4181086;28;20653;-49
2023/01/28 05:14:45;;;;;;;2.33;2.00;;;;;;;1.52;100.00;99438.66;4183570;28;20207;-49
2023/01/28 05:16:47;;;;;;;1.67;1.58;;;;;;;1.52;100.00;99438.66;4186332;28;20207;-48
2023/01/28 05:18:50;;;;;;;2.15;2.00;;;;;;;1.49;100.00;99433.59;4172219;28;20648;-48
2023/01/28 05:20:52;;;;;;;1.60;1.50;;;;;;;1.53;100.00;99437.66;4180319;28;20749;-48
2023/01/28 05:22:54;;;;;;;1.67;1.58;;;;;;;1.56;100.00;99442.72;4167930;28;20663;-48
2023/01/28 05:24:56;;;;;;;1.92;1.83;;;;;;;1.50;100.00;99440.69;4170120;28;20232;-48
2023/01/28 05:26:58;;;;;;;2.03;1.92;;;;;;;1.49;100.00;99444.38;4175521;28;20295;-48
2023/01/28 05:28:59;;;;;;;2.10;2.00;;;;;;;1.48;100.00;99440.00;4179128;28;20674;-49
2023/01/28 05:31:05;;;;;;;2.08;1.98;;;;;;;1.43;100.00;99445.09;4181485;28;20211;-48
2023/01/28 05:33:07;;;;;;;2.17;1.98;;;;;;;1.47;100.00;99451.81;4169013;28;20228;-50
2023/01/28 05:35:09;;;;;;;1.58;1.48;;;;;;;1.44;100.00;99445.91;4175528;28;20227;-49
2023/01/28 05:37:11;;;;;;;1.55;1.48;;;;;;;1.52;100.00;99444.06;4176286;28;20287;-49
2023/01/28 05:39:12;;;;;;;1.60;1.50;;;;;;;1.50;100.00;99451.47;4178457;28;20208;-50
2023/01/28 05:41:14;;;;;;;1.58;1.48;;;;;;;1.45;100.00;99448.44;4180934;28;20665;-49
2023/01/28 05:43:16;;;;;;;2.28;2.13;;;;;;;1.45;100.00;99448.44;4167279;28;20246;-49
2023/01/28 05:45:18;;;;;;;2.28;2.08;;;;;;;1.48;100.00;99450.78;4178720;28;20257;-49
2023/01/28 05:47:20;;;;;;;1.83;1.73;;;;;;;1.45;100.00;99448.44;4166484;28;20559;-49
2023/01/28 05:49:22;;;;;;;2.17;2.08;;;;;;;1.59;100.00;99457.69;4181588;28;20283;-48
2023/01/28 05:51:23;;;;;;;1.90;1.80;;;;;;;1.62;100.00;99452.78;4181673;28;20721;-49
2023/01/28 05:53:25;;;;;;;2.70;2.08;;;;;;;1.66;100.00;99456.84;4183248;28;20257;-49
2023/01/28 05:55:27;;;;;;;1.77;1.67;;;;;;;1.60;100.00;99457.53;4185791;28;20199;-50
2023/01/28 05:57:29;;;;;;;1.77;1.67;;;;;;;1.61;100.00;99461.06;4171852;28;20238;-49
2023/01/28 05:59:30;;;;;;;1.88;1.60;;;;;;;1.55;100.00;99454.50;4187852;28;20227;-49
2023/01/28 06:01:32;;;;;;;2.55;1.95;;;;;;;1.61;100.00;99467.28;4184603;28;20291;-50
2023/01/28 06:03:34;;;;;;;2.20;2.05;;;;;;;1.68;100.00;99475.56;4166286;28;20224;-49
2023/01/28 06:05:36;;;;;;;2.10;1.90;;;;;;;1.70;100.00;99477.09;4170266;28;20278;-49
2023/01/28 06:07:38;;;;;;;2.10;2.00;;;;;;;1.62;100.00;99468.97;4172963;28;20208;-49
2023/01/28 06:09:39;;;;;;;2.13;2.03;;;;;;;1.70;100.00;99469.00;4183989;28;20288;-50
2023/01/28 06:11:41;;;;;;;2.00;1.90;;;;;;;1.68;100.00;99481.78;4182239;28;20253;-49
2023/01/28 06:13:43;;;;;;;2.88;2.13;;;;;;;1.62;100.00;99479.75;4182704;28;20586;-49
2023/01/28 06:15:49;;;;;;;1.63;1.48;;;;;;;1.61;100.00;99480.78;4183301;28;20323;-50
2023/01/28 06:17:50;;;;;;;2.38;2.25;;;;;;;1.57;100.00;99479.47;4200611;28;20298;-49
2023/01/28 06:19:52;;;;;;;1.83;1.73;;;;;;;1.44;100.00;99487.22;4169433;28;20255;-49
2023/01/28 06:21:54;;;;;;;3.38;2.28;;;;;;;1.41;100.00;99490.22;4181001;28;20235;-49
2023/01/28 06:23:55;;;;;;;2.80;2.60;;;;;;;1.45;100.00;99491.59;4180123;28;20314;-49
2023/01/28 06:25:57;;;;;;;2.08;1.98;;;;;;;1.51;100.00;99492.75;4173053;28;20251;-50
2023/01/28 06:27:59;;;;;;;1.75;1.65;;;;;;;1.60;100.00;99495.28;4184441;28;20554;-50
2023/01/28 06:30:01;;;;;;;1.75;1.60;;;;;;;1.59;100.00;99498.13;4184040;28;20242;-50
2023/01/28 06:32:03;;;;;;;2.35;2.17;;;;;;;1.67;100.00;99498.16;4183502;28;20239;-51
2023/01/28 06:34:05;;;;;;;1.95;1.85;;;;;;;1.66;100.00;99494.59;4181781;28;20628;-49
2023/01/28 06:36:07;;;;;;;1.83;1.73;;;;;;;1.60;100.00;99511.47;4162277;28;20235;-50
2023/01/28 06:38:09;;;;;;;1.73;1.63;;;;;;;1.64;100.00;99510.13;4183271;28;20230;-50
2023/01/28 06:40:11;;;;;;;1.35;1.33;;;;;;;1.57;100.00;99517.22;4184253;28;20376;-49
2023/01/28 06:42:14;;;;;;;1.70;1.60;;;;;;;1.63;100.00;99511.16;4184405;28;20203;-50
2023/01/28 06:44:15;;;;;;;1.40;1.40;;;;;;;1.60;100.00;99519.56;4184370;28;20680;-49
2023/01/28 06:46:17;;;;;;;1.58;1.48;;;;;;;1.60;100.00;99513.34;4186097;28;20261;-50
2023/01/28 06:48:19;;;;;;;2.10;1.90;;;;;;;1.63;100.00;99516.53;4183902;28;20196;-49
2023/01/28 06:50:21;;;;;;;1.70;1.60;;;;;;;1.62;100.00;99519.41;4184211;28;20267;-50
2023/01/28 06:52:23;;;;;;;2.13;1.80;;;;;;;1.53;100.00;99520.41;4184168;28;20231;-50
2023/01/28 06:54:25;;;;;;;2.08;1.92;;;;;;;1.41;100.00;99527.16;4181284;28;20989;-50
2023/01/28 06:56:26;;;;;;;1.80;1.70;;;;;;;1.39;100.00;99530.00;4185150;28;21100;-51
2023/01/28 06:58:28;;;;;;;2.10;1.90;;;;;;;1.37;100.00;99526.66;4181284;28;20230;-50
2023/01/28 07:00:30;;;;;;;1.90;1.80;;;;;;;1.38;100.00;99531.03;4184880;28;20235;-50
2023/01/28 07:02:31;;;;;;;2.55;2.42;;;;;;;1.33;100.00;99529.84;4184334;28;20290;-49
2023/01/28 07:04:33;;;;;;;2.72;2.60;;;;;;;1.31;100.00;99538.09;4179043;28;20236;-49
2023/01/28 07:06:35;;;;;;;2.35;2.15;;;;;;;1.31;100.00;99535.41;4181733;28;20208;-50
2023/01/28 07:08:38;;;;;;;2.30;2.10;;;;;;;1.37;100.00;99534.72;4183865;28;20254;-50
2023/01/28 07:10:40;;;;;;;2.15;2.05;;;;;;;1.40;100.00;99539.78;4182029;28;20203;-50
2023/01/28 07:12:42;;;;;;;1.90;1.80;;;;;;;1.35;100.00;99539.44;4182647;28;20737;-50
2023/01/28 07:14:46;;;;;;;2.08;1.98;;;;;;;1.29;100.00;99534.69;4182264;28;20201;-50
2023/01/28 07:16:48;;;;;;;2.20;2.10;;;;;;;1.37;100.00;99531.19;4184737;28;21103;-49
2023/01/28 07:18:50;;;;;;;1.65;1.60;;;;;;;1.39;100.00;99535.41;4186593;28;20212;-50
2023/01/28 07:20:52;;;;;;;1.52;1.42;;;;;;;1.34;100.00;99539.63;4189017;28;20212;-51
2023/01/28 07:22:53;;;;;;;1.80;1.70;;;;;;;1.32;100.00;99534.38;4186737;28;20302;-50
2023/01/28 07:24:57;;;;;;;1.75;1.65;;;;;;;1.41;100.00;99527.97;4187816;28;20229;-50
2023/01/28 07:26:59;;;;;;;2.00;1.90;;;;;;;1.37;100.00;99532.03;4180528;28;20250;-50
2023/01/28 07:29:01;;;;;;;1.52;1.42;;;;;;;1.31;100.00;99531.84;4181528;28;20235;-50
2023/01/28 07:31:02;;;;;;;1.98;1.60;;;;;;;1.39;100.00;99534.53;4184201;28;20208;-50
2023/01/28 07:33:07;;;;;;;1.98;1.88;;;;;;;1.40;100.00;99534.38;4179739;28;20266;-50
2023/01/28 07:35:10;;;;;;;4.53;2.05;;;;;;;1.33;100.00;99538.75;4183259;28;20625;-50
2023/01/28 07:37:11;;;;;;;1.77;1.67;;;;;;;1.39;100.00;99546.19;4171861;28;22577;-50
2023/01/28 07:39:13;;;;;;;1.92;1.83;;;;;;;1.45;100.00;99545.50;4188536;28;20255;-49
2023/01/28 07:41:15;;;;;;;4.40;1.70;;;;;;;1.41;100.00;99546.84;4180520;28;20298;-49
2023/01/28 07:43:16;;;;;;;1.50;1.42;;;;;;;1.34;100.00;99542.31;4170767;28;20659;-49
2023/01/28 07:45:18;;;;;;;1.70;1.60;;;;;;;1.38;100.00;99543.66;4177209;28;20739;-49
2023/01/28 07:47:20;;;;;;;1.83;1.73;;;;;;;1.42;100.00;99545.84;4181573;28;20211;-50
2023/01/28 07:49:22;;;;;;;1.77;1.67;;;;;;;1.42;100.00;99551.22;4180888;28;20240;-49
2023/01/28 07:51:24;;;;;;;1.67;1.58;;;;;;;1.37;100.00;99548.22;4182537;28;20244;-50
2023/01/28 07:53:26;;;;;;;2.13;2.03;;;;;;;1.51;100.00;99555.63;4182675;28;20231;-50
2023/01/28 07:55:28;;;;;;;2.03;1.92;;;;;;;1.42;100.00;99550.41;4198916;28;20960;-49
2023/01/28 07:57:32;;;;;;;1.67;1.58;;;;;;;1.46;100.00;99563.38;4169952;28;20700;-50
2023/01/28 07:59:33;;;;;;;1.70;1.60;;;;;;;1.38;100.00;99560.69;4183858;28;20227;-50
2023/01/28 08:01:35;;;;;;;1.73;1.65;;;;;;;1.41;100.00;99570.28;4180684;28;20298;-50
2023/01/28 08:03:37;;;;;;;1.83;1.73;;;;;;;1.33;100.00;99568.41;4180741;28;20226;-50
2023/01/28 08:05:46;;;;;;;3.83;1.70;;;;;;;1.48;100.00;99566.75;4182392;28;20204;-50
2023/01/28 08:07:48;;;;;;;1.83;1.73;;;;;;;1.49;100.00;99562.19;4182855;28;20208;-50
2023/01/28 08:09:50;;;;;;;2.00;1.55;;;;;;;1.56;100.00;99563.22;4180768;28;20310;-50
2023/01/28 08:11:52;;;;;;;1.65;1.55;;;;;;;1.56;100.00;99563.22;4182665;28;20302;-51
2023/01/28 08:13:55;;;;;;;1.70;1.60;;;;;;;1.51;100.00;99571.81;4182357;28;20844;-50
2023/01/28 08:15:58;;;;;;;1.60;1.50;;;;;;;1.49;100.00;99570.28;4183181;28;20216;-50
2023/01/28 08:18:00;;;;;;;1.95;1.83;;;;;;;1.52;100.00;99573.50;4183142;28;20215;-50
2023/01/28 08:20:01;;;;;;;1.90;1.80;;;;;;;1.52;100.00;99570.81;4196760;28;20333;-50
2023/01/28 08:22:03;;;;;;;1.63;1.52;;;;;;;1.58;100.00;99567.44;4180093;28;20238;-50
2023/01/28 08:24:05;;;;;;;1.67;1.58;;;;;;;1.59;100.00;99574.50;4178508;28;20297;-50
2023/01/28 08:26:07;;;;;;;2.08;1.90;;;;;;;1.60;100.00;99576.19;4177148;28;20219;-50
2023/01/28 08:28:09;;;;;;;1.60;1.48;;;;;;;1.54;100.00;99571.47;4172733;28;20331;-50
2023/01/28 08:30:11;;;;;;;2.33;2.20;;;;;;;1.48;100.00;99577.53;4163796;28;20674;-50
2023/01/28 08:32:14;;;;;;;2.17;2.08;;;;;;;1.53;100.00;99575.19;4180106;28;20220;-51
2023/01/28 08:34:15;;;;;;;1.67;1.58;;;;;;;1.60;100.00;99572.66;4188334;28;20300;-51
2023/01/28 08:36:17;;;;;;;1.63;1.52;;;;;;;1.58;100.00;99575.53;4178360;28;20299;-50
2023/01/28 08:38:19;;;;;;;2.15;1.98;;;;;;;1.62;100.00;99578.72;4185795;28;20204;-49
2023/01/28 08:40:21;;;;;;;1.40;1.30;;;;;;;1.59;100.00;99582.59;4187048;28;20301;-50
2023/01/28 08:42:23;;;;;;;1.75;1.65;;;;;;;1.70;100.00;99582.28;4182248;28;20223;-50
2023/01/28 08:44:25;;;;;;;1.70;1.60;;;;;;;1.77;100.00;99582.44;4168866;28;20310;-50
2023/01/28 08:46:27;;;;;;;1.92;1.83;;;;;;;1.75;100.00;99579.91;4184758;28;20294;-50
2023/01/28 08:48:28;;;;;;;1.70;1.60;;;;;;;1.69;100.00;99580.56;4180009;28;20207;-51
2023/01/28 08:50:35;;;;;;;1.90;1.80;;;;;;;1.62;100.00;99584.94;4179257;28;20317;-51
2023/01/28 08:52:37;;;;;;;2.25;2.10;;;;;;;1.63;100.00;99583.13;4199187;28;20692;-51
2023/01/28 08:54:38;;;;;;;1.70;1.60;;;;;;;1.76;100.00;99580.75;4181631;28;20235;-49
2023/01/28 08:56:43;;;;;;;2.60;2.40;;;;;;;1.68;100.00;99573.50;4180092;28;20338;-49
2023/01/28 08:58:45;;;;;;;1.88;1.77;;;;;;;1.69;100.00;99568.97;4178864;28;20498;-49
2023/01/28 09:00:47;;;;;;;2.50;2.30;;;;;;;1.75;100.00;99576.38;4165610;28;20288;-49
2023/01/28 09:02:52;;;;;;;1.92;1.83;;;;;;;1.81;100.00;99579.22;4180098;28;20708;-50
2023/01/28 09:04:54;;;;;;;1.55;1.45;;;;;;;1.74;100.00;99574.69;4183689;28;20786;-50
2023/01/28 09:06:55;;;;;;;1.55;1.45;;;;;;;1.71;100.00;99577.72;4178803;28;21365;-50
2023/01/28 09:08:58;;;;;;;2.15;1.80;;;;;;;1.77;100.00;99574.34;4182584;28;20242;-50
2023/01/28 09:11:00;;;;;;;1.85;1.75;;;;;;;1.70;100.00;99571.50;4182324;28;20239;-50
2023/01/28 09:13:10;;;;;;;1.75;1.65;;;;;;;1.79;100.00;99573.16;4174480;28;20226;-50
2023/01/28 09:15:12;;;;;;;1.33;1.23;;;;;;;1.79;100.00;99578.56;4178773;28;20591;-50
2023/01/28 09:17:14;;;;;;;1.73;1.58;;;;;;;1.80;100.00;99582.13;4176854;28;20214;-50
2023/01/28 09:19:15;;;;;;;1.73;1.63;;;;;;;1.88;100.00;99584.81;4173759;28;20322;-49
2023/01/28 09:21:17;;;;;;;3.50;2.00;;;;;;;1.80;100.00;99593.72;4179231;28;20655;-50
2023/01/28 09:23:19;;;;;;;2.10;1.80;;;;;;;1.89;100.00;99598.09;4176451;28;20250;-50
2023/01/28 09:25:21;;;;;;;1.67;1.58;;;;;;;1.91;100.00;99596.09;4174951;28;20695;-50
2023/01/28 09:27:24;;;;;;;1.92;1.83;;;;;;;1.96;100.00;99596.44;4181895;28;20208;-50
2023/01/28 09:29:25;;;;;;;2.30;2.10;;;;;;;1.92;100.00;99600.50;4182558;28;20298;-49
2023/01/28 09:31:27;;;;;;;2.13;1.98;;;;;;;1.91;100.00;99601.50;4181855;28;20726;-50
2023/01/28 09:33:29;;;;;;;1.65;1.55;;;;;;;1.91;100.00;99601.50;4184289;28;20231;-49
2023/01/28 09:35:32;;;;;;;2.25;2.13;;;;;;;2.00;100.00;99605.88;4187556;28;20645;-49
2023/01/28 09:37:34;;;;;;;2.33;2.13;;;;;;;1.94;100.00;99606.53;4172880;28;20622;-50
2023/01/28 09:39:36;;;;;;;2.90;2.10;;;;;;;1.89;100.00;99602.69;4181468;28;20216;-51
2023/01/28 09:41:45;;;;;;;1.98;1.88;;;;;;;1.91;100.00;99601.50;4175885;28;20222;-50
2023/01/28 09:43:58;;;;;;;1.83;1.73;;;;;;;1.96;100.00;99609.94;4182435;28;20310;-50
2023/01/28 09:46:03;;;;;;;2.15;2.05;;;;;;;2.00;100.00;99619.38;4183491;28;20245;-51
2023/01/28 09:48:12;;;;;;;2.25;2.05;;;;;;;1.95;100.00;99608.22;4175057;28;20202;-50
2023/01/28 09:50:19;;;;;;;2.15;1.95;;;;;;;2.01;100.00;99612.13;4175342;28;20234;-50
2023/01/28 09:52:23;;;;;;;3.70;1.95;;;;;;;1.98;100.00;99617.84;4185209;28;20666;-50
2023/01/28 09:54:28;;;;;;;1.75;1.55;;;;;;;2.03;100.00;99615.50;4181195;28;20254;-50
2023/01/28 09:56:33;;;;;;;1.98;1.88;;;;;;;1.97;100.00;99622.41;4187868;28;20740;-50
2023/01/28 09:58:35;;;;;;;1.65;1.55;;;;;;;1.96;100.00;99614.47;4188905;28;20665;-51
2023/01/28 10:01:12;;;;;;;1.88;1.77;;;;;;;1.96;100.00;99615.34;4179125;28;20243;-50
2023/01/28 10:03:35;;;;;;;1.98;1.88;;;;;;;1.95;100.00;99616.31;4178242;28;20226;-51
2023/01/28 10:05:57;;;;;;;1.80;1.70;;;;;;;1.92;100.00;99619.38;4181884;28;20219;-51
2023/01/28 10:08:19;;;;;;;1.75;1.52;;;;;;;1.95;100.00;99618.19;4180981;28;20307;-49
2023/01/28 10:10:29;;;;;;;2.25;2.15;;;;;;;1.89;100.00;99619.69;4183645;28;20681;-50
2023/01/28 10:12:52;;;;;;;1.67;1.58;;;;;;;1.98;100.00;99621.41;4164516;28;20933;-50